createdAt,value
2018-03-07T00:00:47.590Z,96.80
2018-03-07T00:03:15.058Z,96.70
2018-03-07T00:05:42.535Z,96.90
2018-03-07T00:08:10.006Z,96.70
2018-03-07T00:10:37.482Z,96.70
2018-03-07T00:13:05.068Z,96.70
2018-03-07T00:15:33.289Z,96.90
2018-03-07T00:18:00.798Z,96.60
2018-03-07T00:20:28.275Z,96.70
2018-03-07T00:22:55.751Z,96.80
2018-03-07T00:25:23.242Z,96.90
2018-03-07T00:27:51.554Z,96.90
2018-03-07T00:30:19.086Z,96.80
2018-03-07T00:32:46.627Z,96.90
2018-03-07T00:35:14.106Z,96.80
2018-03-07T00:37:41.554Z,96.80
2018-03-07T00:40:09.044Z,96.90
2018-03-07T00:42:36.502Z,97.10
2018-03-07T00:45:03.959Z,96.80
2018-03-07T00:47:31.450Z,96.80
2018-03-07T00:49:58.930Z,96.80
2018-03-07T00:52:26.454Z,96.80
2018-03-07T00:54:53.919Z,96.70
2018-03-07T00:57:21.497Z,96.60
2018-03-07T00:59:49.725Z,96.80
2018-03-07T01:02:17.326Z,96.80
2018-03-07T01:04:45.542Z,97.00
2018-03-07T01:07:13.083Z,96.90
2018-03-07T01:09:40.576Z,96.90
2018-03-07T01:12:08.838Z,96.80
2018-03-07T01:14:36.282Z,96.80
2018-03-07T01:17:03.747Z,96.80
2018-03-07T01:19:31.286Z,96.80
2018-03-07T01:21:58.826Z,97.00
2018-03-07T01:24:26.399Z,96.80
2018-03-07T01:26:53.874Z,96.80
2018-03-07T01:29:21.317Z,96.80
2018-03-07T01:31:48.842Z,96.90
2018-03-07T01:34:16.351Z,96.90
2018-03-07T01:36:43.883Z,97.00
2018-03-07T01:39:11.351Z,97.10
2018-03-07T01:41:38.854Z,97.20
2018-03-07T01:44:06.339Z,97.20
2018-03-07T01:46:33.822Z,97.20
2018-03-07T01:49:01.278Z,97.20
2018-03-07T01:51:40.584Z,97.10
2018-03-07T01:54:08.035Z,97.10
2018-03-07T01:56:36.256Z,97.00
2018-03-07T01:59:04.084Z,97.00
2018-03-07T02:01:31.563Z,97.00
2018-03-07T02:03:59.774Z,97.20
2018-03-07T02:06:27.347Z,97.20
2018-03-07T02:08:54.864Z,97.30
2018-03-07T02:11:22.385Z,97.40
2018-03-07T02:13:49.851Z,97.40
2018-03-07T02:16:17.430Z,97.60
2018-03-07T02:18:44.943Z,97.50
2018-03-07T02:21:12.541Z,97.80
2018-03-07T02:23:40.086Z,97.90
2018-03-07T02:26:07.558Z,97.80
2018-03-07T02:28:35.055Z,97.90
2018-03-07T02:31:02.618Z,97.80
2018-03-07T02:33:30.095Z,97.90
2018-03-07T02:35:57.652Z,98.00
2018-03-07T02:38:25.104Z,98.50
2018-03-07T02:40:52.557Z,98.20
2018-03-07T02:43:20.039Z,98.20
2018-03-07T02:45:47.496Z,98.40
2018-03-07T02:48:14.950Z,98.40
2018-03-07T02:50:42.425Z,98.40
2018-03-07T02:53:09.881Z,98.40
2018-03-07T02:55:37.330Z,98.40
2018-03-07T02:58:05.583Z,98.10
2018-03-07T03:00:33.044Z,98.10
2018-03-07T03:03:00.586Z,98.10
2018-03-07T03:05:28.086Z,97.90
2018-03-07T03:07:55.546Z,97.70
2018-03-07T03:10:22.998Z,97.40
2018-03-07T03:12:50.486Z,97.40
2018-03-07T03:15:17.940Z,97.30
2018-03-07T03:17:45.398Z,97.40
2018-03-07T03:20:12.868Z,97.30
2018-03-07T03:22:40.323Z,97.40
2018-03-07T03:25:08.542Z,97.60
2018-03-07T03:27:36.036Z,97.60
2018-03-07T03:30:03.491Z,97.60
2018-03-07T03:32:30.952Z,97.20
2018-03-07T03:34:58.456Z,97.10
2018-03-07T03:37:25.914Z,97.00
2018-03-07T03:39:53.401Z,97.00
2018-03-07T03:42:20.988Z,97.00
2018-03-07T03:44:48.534Z,96.90
2018-03-07T03:47:15.991Z,96.60
2018-03-07T03:49:43.595Z,96.80
2018-03-07T03:52:11.893Z,96.70
2018-03-07T03:54:39.329Z,96.70
2018-03-07T03:57:07.138Z,96.60
2018-03-07T03:59:34.641Z,96.60
2018-03-07T04:02:02.131Z,96.70
2018-03-07T04:04:29.644Z,96.40
2018-03-07T04:06:57.095Z,96.30
2018-03-07T04:09:24.579Z,96.30
2018-03-07T04:11:52.075Z,96.30
2018-03-07T04:14:20.288Z,96.60
2018-03-07T04:16:47.766Z,96.60
2018-03-07T04:19:15.247Z,96.40
2018-03-07T04:21:42.731Z,96.50
2018-03-07T04:24:10.202Z,96.70
2018-03-07T04:26:37.799Z,97.00
2018-03-07T04:29:05.259Z,97.00
2018-03-07T04:31:33.555Z,97.40
2018-03-07T04:34:01.047Z,97.40
2018-03-07T04:36:29.291Z,97.50
2018-03-07T04:38:56.776Z,97.50
2018-03-07T04:41:24.262Z,97.40
2018-03-07T04:43:51.715Z,97.60
2018-03-07T04:46:19.300Z,97.70
2018-03-07T04:48:47.082Z,97.80
2018-03-07T04:51:14.563Z,97.80
2018-03-07T04:53:42.803Z,98.20
2018-03-07T04:56:10.306Z,98.10
2018-03-07T04:58:37.782Z,98.20
2018-03-07T05:01:06.094Z,98.50
2018-03-07T05:03:33.977Z,98.20
2018-03-07T05:06:01.449Z,98.20
2018-03-07T05:08:29.017Z,98.30
2018-03-07T05:11:15.951Z,98.50
2018-03-07T05:13:43.587Z,98.40
2018-03-07T05:16:11.158Z,98.40
2018-03-07T05:18:38.938Z,98.20
2018-03-07T05:21:06.387Z,98.00
2018-03-07T05:23:33.947Z,98.10
2018-03-07T05:26:01.485Z,98.20
2018-03-07T05:28:28.955Z,97.90
2018-03-07T05:30:56.402Z,97.90
2018-03-07T05:33:24.634Z,98.00
2018-03-07T05:35:52.087Z,98.00
2018-03-07T05:38:19.627Z,98.10
2018-03-07T05:40:47.161Z,97.90
2018-03-07T05:43:14.619Z,98.10
2018-03-07T05:45:42.102Z,98.30
2018-03-07T05:48:09.589Z,98.40
2018-03-07T05:50:37.075Z,98.30
2018-03-07T05:53:04.522Z,98.50
2018-03-07T05:55:32.046Z,98.60
2018-03-07T05:57:59.563Z,99.00
2018-03-07T06:00:27.151Z,98.80
2018-03-07T06:02:54.902Z,98.60
2018-03-07T06:05:23.951Z,98.60
2018-03-07T06:09:03.875Z,98.60
2018-03-07T06:11:31.355Z,98.80
2018-03-07T06:13:58.828Z,98.90
2018-03-07T06:16:26.423Z,99.20
2018-03-07T06:18:53.966Z,99.10
2018-03-07T06:21:21.426Z,99.00
2018-03-07T06:23:48.928Z,99.10
2018-03-07T06:26:16.408Z,99.20
2018-03-07T06:28:43.894Z,99.20
2018-03-07T06:31:12.617Z,98.80
2018-03-07T06:33:40.145Z,98.80
2018-03-07T06:36:07.651Z,99.00
2018-03-07T06:38:35.875Z,98.80
2018-03-07T06:41:03.327Z,98.80
2018-03-07T06:43:30.808Z,98.80
2018-03-07T06:45:58.301Z,98.80
2018-03-07T06:48:25.746Z,98.50
2018-03-07T06:50:53.258Z,98.40
2018-03-07T06:53:20.836Z,98.20
2018-03-07T06:55:48.317Z,97.80
2018-03-07T06:58:16.565Z,97.30
2018-03-07T07:00:44.054Z,97.20
2018-03-07T07:03:11.603Z,97.30
2018-03-07T07:05:39.079Z,97.10
2018-03-07T07:08:06.587Z,97.20
2018-03-07T07:10:34.816Z,97.20
2018-03-07T07:13:02.366Z,97.20
2018-03-07T07:15:29.832Z,97.20
2018-03-07T07:17:57.412Z,97.20
2018-03-07T07:20:24.921Z,97.20
2018-03-07T07:22:52.411Z,97.20
2018-03-07T07:25:19.887Z,97.30
2018-03-07T07:27:47.493Z,97.30
2018-03-07T07:30:14.970Z,97.20
2018-03-07T07:32:42.430Z,97.20
2018-03-07T07:35:09.887Z,97.30
2018-03-07T07:37:38.155Z,97.40
2018-03-07T07:40:05.727Z,97.40
2018-03-07T07:42:33.204Z,97.50
2018-03-07T07:45:00.979Z,97.60
2018-03-07T07:47:28.422Z,97.60
2018-03-07T07:49:55.903Z,97.30
2018-03-07T07:52:23.376Z,96.80
2018-03-07T07:54:50.833Z,96.70
2018-03-07T07:57:18.335Z,96.70
2018-03-07T07:59:45.827Z,96.10
2018-03-07T08:02:13.304Z,95.80
2018-03-07T08:04:40.839Z,95.90
2018-03-07T08:07:08.648Z,95.40
2018-03-07T08:09:36.123Z,94.80
2018-03-07T08:12:03.567Z,94.70
2018-03-07T08:14:31.877Z,93.00
2018-03-07T08:16:59.446Z,93.00
2018-03-07T08:19:26.932Z,92.50
2018-03-07T08:21:54.423Z,92.60
2018-03-07T08:24:21.908Z,92.30
2018-03-07T08:26:49.391Z,92.00
2018-03-07T08:29:16.866Z,92.00
2018-03-07T08:31:45.130Z,91.80
2018-03-07T08:34:12.609Z,91.60
2018-03-07T08:36:40.068Z,91.40
2018-03-07T08:39:07.538Z,91.50
2018-03-07T08:41:34.986Z,90.80
2018-03-07T08:44:02.506Z,91.00
2018-03-07T08:46:29.954Z,91.60
2018-03-07T08:48:57.436Z,92.00
2018-03-07T08:51:24.902Z,91.40
2018-03-07T08:53:52.458Z,90.80
2018-03-07T08:56:19.910Z,91.10
2018-03-07T08:58:47.394Z,91.10
2018-03-07T09:01:14.883Z,91.10
2018-03-07T09:03:42.359Z,91.20
2018-03-07T09:06:09.819Z,91.10
2018-03-07T09:08:37.303Z,91.40
2018-03-07T09:11:04.751Z,91.40
2018-03-07T09:13:32.360Z,92.10
2018-03-07T09:16:00.611Z,92.50
2018-03-07T09:18:28.087Z,92.50
2018-03-07T09:20:55.687Z,92.50
2018-03-07T09:23:23.166Z,92.20
2018-03-07T09:25:51.476Z,92.20
2018-03-07T09:28:19.010Z,92.20
2018-03-07T09:30:46.503Z,92.00
2018-03-07T09:33:14.029Z,92.60
2018-03-07T09:35:41.527Z,92.70
2018-03-07T09:38:08.980Z,93.00
2018-03-07T09:40:36.486Z,93.10
2018-03-07T09:43:04.724Z,92.90
2018-03-07T09:45:32.223Z,92.90
2018-03-07T09:48:00.462Z,93.20
2018-03-07T09:50:28.279Z,93.20
2018-03-07T09:52:55.759Z,93.00
2018-03-07T09:55:23.207Z,93.60
2018-03-07T09:57:50.678Z,93.30
2018-03-07T10:00:18.130Z,93.80
2018-03-07T10:02:45.617Z,95.60
2018-03-07T10:05:13.075Z,95.00
2018-03-07T10:07:40.534Z,95.00
2018-03-07T10:10:08.016Z,95.10
2018-03-07T10:12:35.548Z,95.50
2018-03-07T10:15:03.000Z,95.60
2018-03-07T10:17:31.288Z,96.00
2018-03-07T10:19:59.559Z,96.10
2018-03-07T10:22:27.047Z,96.10
2018-03-07T10:24:55.266Z,96.20
2018-03-07T10:27:23.067Z,96.20
2018-03-07T10:29:50.534Z,96.50
2018-03-07T10:32:17.991Z,96.60
2018-03-07T10:34:47.692Z,96.50
2018-03-07T10:37:15.162Z,96.50
2018-03-07T10:39:42.619Z,96.50
2018-03-07T10:42:10.855Z,96.20
2018-03-07T10:44:38.338Z,96.20
2018-03-07T10:47:05.805Z,96.40
2018-03-07T10:49:33.371Z,95.70
2018-03-07T10:52:00.852Z,93.30
2018-03-07T10:54:29.079Z,88.90
2018-03-07T10:56:57.627Z,86.40
2018-03-07T10:59:25.157Z,86.40
2018-03-07T11:01:52.623Z,86.80
2018-03-07T11:04:20.196Z,89.30
2018-03-07T11:06:47.651Z,88.40
2018-03-07T11:09:15.898Z,90.10
2018-03-07T11:11:43.677Z,90.10
2018-03-07T11:14:11.143Z,90.10
2018-03-07T11:16:38.603Z,90.20
2018-03-07T11:19:06.245Z,90.80
2018-03-07T11:21:33.700Z,90.50
2018-03-07T11:24:02.000Z,90.20
2018-03-07T11:26:29.573Z,90.20
2018-03-07T11:28:57.027Z,90.60
2018-03-07T11:31:25.270Z,90.20
2018-03-07T11:33:52.783Z,90.20
2018-03-07T11:36:21.038Z,90.80
2018-03-07T11:38:48.498Z,90.70
2018-03-07T11:41:15.976Z,90.90
2018-03-07T11:43:43.446Z,90.90
2018-03-07T11:46:10.931Z,90.50
2018-03-07T11:48:38.394Z,91.30
2018-03-07T11:51:05.851Z,91.80
2018-03-07T11:53:33.311Z,91.40
2018-03-07T11:56:00.794Z,90.80
2018-03-07T11:58:28.250Z,91.20
2018-03-07T12:00:55.706Z,90.80
2018-03-07T12:03:23.519Z,90.30
2018-03-07T12:05:50.979Z,90.60
2018-03-07T12:08:18.462Z,90.80
2018-03-07T12:10:45.951Z,91.50
2018-03-07T12:13:13.421Z,91.40
2018-03-07T12:15:40.974Z,90.90
2018-03-07T12:18:08.438Z,91.00
2018-03-07T12:20:35.917Z,91.90
2018-03-07T12:23:03.358Z,92.10
2018-03-07T12:25:30.842Z,91.90
2018-03-07T12:27:58.291Z,92.10
2018-03-07T12:30:25.799Z,91.00
2018-03-07T12:32:53.543Z,90.10
2018-03-07T12:35:21.813Z,90.00
2018-03-07T12:37:49.247Z,90.00
2018-03-07T12:40:16.858Z,90.20
2018-03-07T12:42:44.323Z,88.00
2018-03-07T12:45:11.764Z,88.40
2018-03-07T12:47:40.050Z,90.00
2018-03-07T12:50:07.487Z,89.30
2018-03-07T12:52:34.935Z,88.00
2018-03-07T12:55:02.654Z,88.30
2018-03-07T12:57:30.110Z,88.00
2018-03-07T12:59:57.558Z,88.10
2018-03-07T13:02:25.023Z,86.80
2018-03-07T13:04:52.486Z,86.80
2018-03-07T13:07:19.931Z,87.10
2018-03-07T13:09:48.178Z,86.20
2018-03-07T13:12:15.667Z,86.10
2018-03-07T13:14:43.123Z,86.20
2018-03-07T13:17:10.882Z,85.90
2018-03-07T13:19:38.454Z,85.50
2018-03-07T13:22:05.903Z,86.20
2018-03-07T13:24:33.379Z,85.90
2018-03-07T13:27:00.850Z,85.70
2018-03-07T13:29:28.297Z,85.50
2018-03-07T13:31:56.535Z,82.80
2018-03-07T13:34:23.985Z,82.90
2018-03-07T13:36:51.644Z,83.90
2018-03-07T13:39:19.871Z,84.80
2018-03-07T13:41:47.322Z,84.80
2018-03-07T13:44:14.807Z,84.70
2018-03-07T13:46:42.589Z,84.20
2018-03-07T13:49:10.030Z,84.20
2018-03-07T13:51:37.485Z,84.60
2018-03-07T13:54:04.971Z,84.70
2018-03-07T13:56:32.419Z,84.80
2018-03-07T13:58:59.866Z,83.90
2018-03-07T14:01:28.426Z,84.50
2018-03-07T14:03:55.873Z,84.40
2018-03-07T14:06:23.440Z,84.80
2018-03-07T14:08:50.903Z,85.30
2018-03-07T14:11:18.363Z,85.60
2018-03-07T14:13:46.606Z,85.30
2018-03-07T14:16:14.233Z,85.20
2018-03-07T14:18:41.697Z,85.90
2018-03-07T14:21:09.147Z,85.60
2018-03-07T14:23:37.382Z,85.50
2018-03-07T14:26:04.823Z,85.50
2018-03-07T14:28:32.319Z,85.30
2018-03-07T14:30:59.807Z,85.50
2018-03-07T14:33:27.259Z,85.90
2018-03-07T14:35:54.719Z,86.40
2018-03-07T14:38:22.218Z,86.30
2018-03-07T14:40:49.671Z,86.00
2018-03-07T14:43:17.115Z,86.60
2018-03-07T14:45:44.590Z,85.10
2018-03-07T14:48:12.098Z,85.60
2018-03-07T14:50:39.549Z,85.50
2018-03-07T14:53:07.346Z,85.90
2018-03-07T14:55:34.822Z,86.30
2018-03-07T14:58:02.283Z,86.10
2018-03-07T15:00:29.791Z,86.30
2018-03-07T15:02:57.227Z,86.50
2018-03-07T15:05:24.676Z,86.30
2018-03-07T15:07:52.158Z,86.10
2018-03-07T15:10:19.630Z,86.00
2018-03-07T15:12:47.089Z,86.00
2018-03-07T15:15:14.563Z,86.40
2018-03-07T15:17:42.045Z,86.20
2018-03-07T15:20:09.528Z,86.40
2018-03-07T15:22:37.307Z,86.20
2018-03-07T15:25:06.299Z,86.00
2018-03-07T15:27:33.784Z,85.90
2018-03-07T15:30:01.549Z,86.20
2018-03-07T15:32:29.000Z,85.80
2018-03-07T15:34:56.451Z,85.80
2018-03-07T15:37:23.922Z,85.20
2018-03-07T15:39:51.377Z,84.60
2018-03-07T15:42:19.672Z,84.20
2018-03-07T15:44:47.487Z,84.10
2018-03-07T15:47:15.779Z,84.20
2018-03-07T15:49:43.223Z,84.20
2018-03-07T15:52:10.720Z,83.60
2018-03-07T15:54:38.183Z,83.60
2018-03-07T15:57:05.632Z,83.50
2018-03-07T15:59:33.123Z,83.70
2018-03-07T16:02:00.581Z,83.30
2018-03-07T16:04:28.035Z,83.10
2018-03-07T16:06:55.497Z,83.30
2018-03-07T16:09:23.014Z,83.40
2018-03-07T16:11:50.467Z,84.20
2018-03-07T16:14:17.935Z,83.40
2018-03-07T16:16:45.383Z,82.30
2018-03-07T16:19:12.851Z,82.00
2018-03-07T16:21:40.416Z,81.30
2018-03-07T16:24:07.863Z,81.50
2018-03-07T16:26:36.111Z,82.30
2018-03-07T16:29:03.579Z,82.30
2018-03-07T16:31:31.067Z,82.60
2018-03-07T16:33:58.520Z,83.00
2018-03-07T16:36:25.987Z,82.60
2018-03-07T16:38:53.463Z,83.90
2018-03-07T16:41:20.933Z,83.50
2018-03-07T16:43:48.390Z,81.60
2018-03-07T16:46:15.868Z,84.10
2018-03-07T16:48:43.315Z,82.30
2018-03-07T16:51:10.782Z,81.10
2018-03-07T16:53:38.236Z,81.40
2018-03-07T16:56:05.750Z,81.40
2018-03-07T16:58:33.210Z,81.50
2018-03-07T17:01:00.660Z,82.10
2018-03-07T17:03:28.162Z,82.10
2018-03-07T17:05:55.622Z,82.10
2018-03-07T17:08:23.162Z,82.20
2018-03-07T17:10:51.386Z,82.70
2018-03-07T17:13:18.887Z,82.60
2018-03-07T17:15:46.339Z,83.00
2018-03-07T17:18:13.791Z,83.60
2018-03-07T17:20:41.626Z,83.60
2018-03-07T17:23:09.043Z,83.60
2018-03-07T17:25:36.526Z,83.60
2018-03-07T17:28:04.091Z,83.90
2018-03-07T17:30:31.562Z,84.40
2018-03-07T17:32:59.030Z,84.00
2018-03-07T17:35:26.915Z,83.70
2018-03-07T17:37:54.439Z,84.30
2018-03-07T17:40:22.655Z,85.00
2018-03-07T17:42:50.136Z,85.00
2018-03-07T17:45:17.671Z,85.60
2018-03-07T17:47:45.111Z,85.40
2018-03-07T17:50:13.671Z,85.80
2018-03-07T17:52:41.149Z,85.80
2018-03-07T17:55:08.616Z,85.80
2018-03-07T17:57:36.178Z,86.00
2018-03-07T18:00:03.631Z,86.90
2018-03-07T18:02:31.119Z,88.30
2018-03-07T18:04:58.594Z,89.40
2018-03-07T18:07:26.038Z,90.40
2018-03-07T18:09:53.750Z,91.10
2018-03-07T18:12:21.311Z,91.80
2018-03-07T18:14:48.760Z,92.50
2018-03-07T18:17:16.235Z,92.90
2018-03-07T18:19:43.707Z,93.60
2018-03-07T18:22:11.193Z,93.80
2018-03-07T18:26:45.174Z,94.50
2018-03-07T18:29:12.610Z,94.30
2018-03-07T18:31:40.137Z,94.80
2018-03-07T18:34:08.470Z,93.50
2018-03-07T18:36:35.923Z,93.50
2018-03-07T18:39:03.371Z,93.90
2018-03-07T18:41:30.841Z,94.00
2018-03-07T18:43:58.306Z,94.20
2018-03-07T18:46:25.746Z,94.40
2018-03-07T18:48:53.236Z,94.70
2018-03-07T18:51:21.454Z,94.10
2018-03-07T18:53:48.990Z,94.10
2018-03-07T18:56:17.251Z,93.80
2018-03-07T18:58:45.467Z,93.60
2018-03-07T19:01:13.810Z,94.00
2018-03-07T19:03:41.520Z,93.90
2018-03-07T19:06:09.731Z,93.90
2018-03-07T19:08:37.242Z,93.40
2018-03-07T19:11:04.718Z,93.90
2018-03-07T19:13:32.171Z,93.90
2018-03-07T19:15:59.614Z,94.30
2018-03-07T19:18:27.118Z,94.10
2018-03-07T19:20:54.565Z,94.40
2018-03-07T19:23:22.063Z,94.70
2018-03-07T19:25:49.641Z,95.00
2018-03-07T19:28:17.103Z,95.20
2018-03-07T19:30:44.563Z,95.00
2018-03-07T19:33:12.053Z,95.30
2018-03-07T19:35:39.491Z,95.30
2018-03-07T19:38:07.044Z,95.50
2018-03-07T19:40:35.268Z,95.70
2018-03-07T19:43:02.742Z,95.70
2018-03-07T19:45:30.192Z,95.50
2018-03-07T19:47:57.682Z,95.60
2018-03-07T19:50:25.138Z,96.10
2018-03-07T19:52:52.594Z,96.00
2018-03-07T19:55:20.066Z,95.80
2018-03-07T19:57:47.569Z,95.80
2018-03-07T20:00:15.017Z,96.00
2018-03-07T20:02:42.486Z,96.20
2018-03-07T20:05:09.931Z,96.00
2018-03-07T20:07:37.382Z,96.00
2018-03-07T20:10:05.612Z,96.10
2018-03-07T20:12:33.063Z,96.10
2018-03-07T20:15:00.509Z,96.00
2018-03-07T20:17:28.743Z,96.40
2018-03-07T20:19:56.196Z,96.30
2018-03-07T20:22:23.639Z,96.40
2018-03-07T20:24:51.873Z,96.00
2018-03-07T20:27:19.355Z,96.00
2018-03-07T20:29:46.810Z,96.20
2018-03-07T20:32:14.300Z,96.00
2018-03-07T20:34:41.774Z,96.00
2018-03-07T20:37:09.235Z,96.00
2018-03-07T20:39:36.810Z,96.10
2018-03-07T20:42:04.302Z,96.10
2018-03-07T20:44:31.752Z,96.20
2018-03-07T20:46:59.222Z,96.00
2018-03-07T20:49:26.674Z,96.20
2018-03-07T20:51:54.167Z,96.00
2018-03-07T20:54:21.930Z,96.20
2018-03-07T20:56:49.390Z,96.20
2018-03-07T20:59:16.859Z,96.10
2018-03-07T21:01:44.322Z,96.70
2018-03-07T21:04:11.779Z,96.20
2018-03-07T21:06:39.296Z,96.00
2018-03-07T21:09:06.762Z,95.30
2018-03-07T21:11:34.215Z,95.10
2018-03-07T21:14:01.672Z,94.60
2018-03-07T21:16:29.478Z,95.00
2018-03-07T21:18:56.967Z,95.20
2018-03-07T21:21:24.428Z,95.40
2018-03-07T21:23:51.890Z,94.80
2018-03-07T21:26:19.358Z,94.90
2018-03-07T21:28:46.811Z,94.90
2018-03-07T21:31:14.408Z,95.00
2018-03-07T21:33:41.859Z,95.00
2018-03-07T21:36:09.314Z,95.40
2018-03-07T21:38:36.806Z,95.80
2018-03-07T21:41:04.286Z,95.90
2018-03-07T21:43:31.726Z,95.40
2018-03-07T21:45:59.496Z,96.30
2018-03-07T21:48:26.935Z,96.40
2018-03-07T21:50:55.186Z,96.80
2018-03-07T21:53:22.757Z,96.80
2018-03-07T21:55:50.203Z,97.10
2018-03-07T21:58:17.654Z,97.00
2018-03-07T22:00:45.132Z,97.10
2018-03-07T22:03:12.582Z,97.40
2018-03-07T22:05:40.790Z,97.30
2018-03-07T22:08:08.260Z,97.20
2018-03-07T22:10:35.702Z,97.50
2018-03-07T22:13:03.923Z,97.20
2018-03-07T22:15:31.391Z,97.20
2018-03-07T22:17:58.843Z,97.40
2018-03-07T22:20:26.299Z,97.40
2018-03-07T22:22:54.530Z,97.50
2018-03-07T22:25:21.982Z,97.50
2018-03-07T22:27:49.446Z,97.20
2018-03-07T22:30:17.003Z,97.20
2018-03-07T22:32:44.530Z,97.40
2018-03-07T22:35:11.987Z,97.30
2018-03-07T22:37:39.451Z,97.30
2018-03-07T22:40:06.994Z,97.30
2018-03-07T22:42:35.223Z,97.20
2018-03-07T22:45:02.686Z,97.20
2018-03-07T22:47:30.144Z,97.30
2018-03-07T22:49:57.646Z,97.10
2018-03-07T22:52:25.107Z,97.10
2018-03-07T22:54:52.575Z,97.20
2018-03-07T22:57:20.043Z,96.80
2018-03-07T22:59:47.511Z,96.70
2018-03-07T23:02:14.995Z,97.00
2018-03-07T23:04:42.444Z,97.00
2018-03-07T23:07:09.907Z,96.80
2018-03-07T23:09:37.353Z,96.80
2018-03-07T23:12:05.170Z,97.10
2018-03-07T23:14:32.631Z,97.10
2018-03-07T23:17:00.087Z,97.10
2018-03-07T23:19:27.545Z,97.10
2018-03-07T23:21:55.007Z,97.20
2018-03-07T23:24:22.519Z,97.00
2018-03-07T23:26:49.993Z,97.10
2018-03-07T23:29:17.572Z,97.10
2018-03-07T23:31:45.035Z,97.30
2018-03-07T23:34:12.598Z,97.20
2018-03-07T23:36:40.075Z,97.10
2018-03-07T23:39:07.530Z,97.10
2018-03-07T23:41:34.995Z,97.00
2018-03-07T23:44:02.490Z,97.00
2018-03-07T23:46:29.930Z,96.70
2018-03-07T23:48:57.375Z,96.70
2018-03-07T23:51:24.845Z,96.70
2018-03-07T23:53:52.362Z,96.70
2018-03-07T23:56:19.847Z,96.70
2018-03-07T23:58:47.307Z,96.50
